createdAt,value
2018-05-14T00:00:30.491Z,77.85
2018-05-14T00:01:37.308Z,77.82
2018-05-14T00:02:47.394Z,77.86
2018-05-14T00:03:51.361Z,77.90
2018-05-14T00:04:58.395Z,77.88
2018-05-14T00:06:05.155Z,77.88
2018-05-14T00:07:12.126Z,77.86
2018-05-14T00:08:19.179Z,77.87
2018-05-14T00:09:26.072Z,77.87
2018-05-14T00:10:33.151Z,77.86
2018-05-14T00:11:40.442Z,77.82
2018-05-14T00:12:46.720Z,77.82
2018-05-14T00:13:54.172Z,77.84
2018-05-14T00:15:00.465Z,77.82
2018-05-14T00:16:07.425Z,77.79
2018-05-14T00:17:14.236Z,77.76
2018-05-14T00:18:21.955Z,77.77
2018-05-14T00:19:28.311Z,77.75
2018-05-14T00:20:35.168Z,77.75
2018-05-14T00:21:44.087Z,77.70
2018-05-14T00:22:49.037Z,77.71
2018-05-14T00:23:55.859Z,77.76
2018-05-14T00:25:02.709Z,77.77
2018-05-14T00:26:09.748Z,77.76
2018-05-14T00:27:16.610Z,77.78
2018-05-14T00:28:27.240Z,77.76
2018-05-14T00:29:30.403Z,77.81
2018-05-14T00:30:37.195Z,77.83
2018-05-14T00:31:45.187Z,77.84
2018-05-14T00:32:51.288Z,77.83
2018-05-14T00:33:58.140Z,77.86
2018-05-14T00:35:04.932Z,77.87
2018-05-14T00:36:11.804Z,77.90
2018-05-14T00:37:18.660Z,77.85
2018-05-14T00:38:25.599Z,77.82
2018-05-14T00:39:32.748Z,77.80
2018-05-14T00:40:39.666Z,77.75
2018-05-14T00:41:46.736Z,77.73
2018-05-14T00:42:53.489Z,77.75
2018-05-14T00:44:00.540Z,77.76
2018-05-14T00:45:08.560Z,77.76
2018-05-14T00:46:14.511Z,77.74
2018-05-14T00:47:21.636Z,77.77
2018-05-14T00:48:28.645Z,77.76
2018-05-14T00:49:35.697Z,77.74
2018-05-14T00:50:42.541Z,77.71
2018-05-14T00:51:49.314Z,77.69
2018-05-14T00:52:56.144Z,77.75
2018-05-14T00:54:03.043Z,77.73
2018-05-14T00:55:09.943Z,77.78
2018-05-14T00:56:16.985Z,77.86
2018-05-14T00:57:23.751Z,77.84
2018-05-14T00:58:30.608Z,77.79
2018-05-14T00:59:37.642Z,77.79
2018-05-14T01:00:44.528Z,77.76
2018-05-14T01:01:51.447Z,77.72
2018-05-14T01:02:58.235Z,77.67
2018-05-14T01:04:04.993Z,77.65
2018-05-14T01:05:11.747Z,77.62
2018-05-14T01:06:19.144Z,77.63
2018-05-14T01:07:25.483Z,77.60
2018-05-14T01:08:32.387Z,77.61
2018-05-14T01:09:39.273Z,77.57
2018-05-14T01:10:46.249Z,77.54
2018-05-14T01:11:53.120Z,77.51
2018-05-14T01:13:00.043Z,77.55
2018-05-14T01:14:06.864Z,77.56
2018-05-14T01:15:13.738Z,77.54
2018-05-14T01:16:20.692Z,77.54
2018-05-14T01:17:27.455Z,77.52
2018-05-14T01:18:34.534Z,77.51
2018-05-14T01:19:41.316Z,77.45
2018-05-14T01:20:48.107Z,77.42
2018-05-14T01:21:54.873Z,77.37
2018-05-14T01:23:01.711Z,77.34
2018-05-14T01:24:08.532Z,77.33
2018-05-14T01:25:15.405Z,77.29
2018-05-14T01:26:22.208Z,77.33
2018-05-14T01:27:29.004Z,77.35
2018-05-14T01:28:35.831Z,77.39
2018-05-14T01:29:42.661Z,77.38
2018-05-14T01:30:49.545Z,77.41
2018-05-14T01:31:56.328Z,77.41
2018-05-14T01:33:03.324Z,77.39
2018-05-14T01:34:10.370Z,77.39
2018-05-14T01:35:18.240Z,77.34
2018-05-14T01:36:24.336Z,77.31
2018-05-14T01:37:31.139Z,77.35
2018-05-14T01:38:37.940Z,77.32
2018-05-14T01:39:44.731Z,77.31
2018-05-14T01:40:51.605Z,77.26
2018-05-14T01:41:58.603Z,77.26
2018-05-14T01:43:05.475Z,77.23
2018-05-14T01:44:12.259Z,77.21
2018-05-14T01:45:19.361Z,77.19
2018-05-14T01:46:25.867Z,77.18
2018-05-14T01:47:32.660Z,77.16
2018-05-14T01:48:39.490Z,77.15
2018-05-14T01:49:46.279Z,77.12
2018-05-14T01:50:54.532Z,77.13
2018-05-14T01:52:00.151Z,77.12
2018-05-14T01:53:06.979Z,77.15
2018-05-14T01:54:13.840Z,77.13
2018-05-14T01:55:20.652Z,77.16
2018-05-14T01:56:27.516Z,77.13
2018-05-14T01:57:34.243Z,77.14
2018-05-14T01:58:41.076Z,77.17
2018-05-14T01:59:48.189Z,77.22
2018-05-14T02:00:55.079Z,77.28
2018-05-14T02:02:01.893Z,77.25
2018-05-14T02:03:08.957Z,77.23
2018-05-14T02:04:15.837Z,77.22
2018-05-14T02:05:22.619Z,77.23
2018-05-14T02:06:29.403Z,77.26
2018-05-14T02:07:36.198Z,77.26
2018-05-14T02:08:43.068Z,77.29
2018-05-14T02:09:49.916Z,77.29
2018-05-14T02:10:56.785Z,77.28
2018-05-14T02:12:03.608Z,77.30
2018-05-14T02:13:10.572Z,77.35
2018-05-14T02:14:17.457Z,77.37
2018-05-14T02:15:24.384Z,77.41
2018-05-14T02:16:31.396Z,77.51
2018-05-14T02:17:38.212Z,77.63
2018-05-14T02:18:45.082Z,77.66
2018-05-14T02:19:51.959Z,77.59
2018-05-14T02:20:58.915Z,77.57
2018-05-14T02:22:06.192Z,77.52
2018-05-14T02:23:12.444Z,77.51
2018-05-14T02:24:19.380Z,77.50
2018-05-14T02:25:26.363Z,77.50
2018-05-14T02:26:33.191Z,77.54
2018-05-14T02:27:40.054Z,77.52
2018-05-14T02:28:46.902Z,77.54
2018-05-14T02:29:53.805Z,77.52
2018-05-14T02:31:00.644Z,77.55
2018-05-14T02:32:07.625Z,77.57
2018-05-14T02:33:14.697Z,77.57
2018-05-14T02:34:21.579Z,77.57
2018-05-14T02:35:28.400Z,77.53
2018-05-14T02:36:36.296Z,77.56
2018-05-14T02:37:42.124Z,77.59
2018-05-14T02:38:51.341Z,77.61
2018-05-14T02:39:56.064Z,77.63
2018-05-14T02:41:02.919Z,77.66
2018-05-14T02:42:09.819Z,77.65
2018-05-14T02:43:16.813Z,77.64
2018-05-14T02:44:23.616Z,77.68
2018-05-14T02:45:30.414Z,77.66
2018-05-14T02:46:37.430Z,77.69
2018-05-14T02:47:44.905Z,77.71
2018-05-14T02:48:51.009Z,77.74
2018-05-14T02:49:58.808Z,77.82
2018-05-14T02:51:08.651Z,77.84
2018-05-14T02:52:11.764Z,77.84
2018-05-14T02:53:18.740Z,77.88
2018-05-14T02:54:25.448Z,77.87
2018-05-14T02:55:32.279Z,77.90
2018-05-14T02:56:39.269Z,77.92
2018-05-14T02:57:45.941Z,77.96
2018-05-14T02:58:52.982Z,77.93
2018-05-14T02:59:59.875Z,77.95
2018-05-14T03:01:07.573Z,77.97
2018-05-14T03:02:13.653Z,78.00
2018-05-14T03:03:20.675Z,78.01
2018-05-14T03:04:27.495Z,78.04
2018-05-14T03:05:34.665Z,78.06
2018-05-14T03:06:41.253Z,78.05
2018-05-14T03:07:48.108Z,78.07
2018-05-14T03:08:55.272Z,78.06
2018-05-14T03:10:03.623Z,78.08
2018-05-14T03:11:09.260Z,78.09
2018-05-14T03:12:17.160Z,78.13
2018-05-14T03:13:23.319Z,78.13
2018-05-14T03:14:29.882Z,78.15
2018-05-14T03:15:38.113Z,78.15
2018-05-14T03:16:44.052Z,78.13
2018-05-14T03:17:51.022Z,78.13
2018-05-14T03:18:57.810Z,78.12
2018-05-14T03:20:04.599Z,78.12
2018-05-14T03:22:18.127Z,78.04
2018-05-14T03:23:24.984Z,78.01
2018-05-14T03:24:31.784Z,78.03
2018-05-14T03:25:38.589Z,78.02
2018-05-14T03:26:45.471Z,78.05
2018-05-14T03:27:52.287Z,78.02
2018-05-14T03:28:59.077Z,78.03
2018-05-14T03:30:06.631Z,78.04
2018-05-14T03:31:13.199Z,78.03
2018-05-14T03:32:19.836Z,78.05
2018-05-14T03:33:26.601Z,78.09
2018-05-14T03:34:33.343Z,78.12
2018-05-14T03:35:40.188Z,78.12
2018-05-14T03:36:47.464Z,78.13
2018-05-14T03:37:54.222Z,78.09
2018-05-14T03:39:01.322Z,78.09
2018-05-14T03:40:10.429Z,78.09
2018-05-14T03:41:15.107Z,78.14
2018-05-14T03:43:29.806Z,78.23
2018-05-14T03:44:36.037Z,78.25
2018-05-14T03:45:53.149Z,78.27
2018-05-14T03:46:50.815Z,78.30
2018-05-14T03:47:57.047Z,78.36
2018-05-14T03:50:10.981Z,78.39
2018-05-14T03:51:22.829Z,78.39
2018-05-14T03:52:25.171Z,78.38
2018-05-14T03:53:31.804Z,78.41
2018-05-14T03:54:38.678Z,78.39
2018-05-14T03:55:45.816Z,78.41
2018-05-14T03:56:52.629Z,78.39
2018-05-14T03:59:06.533Z,78.41
2018-05-14T04:00:16.499Z,78.43
2018-05-14T04:01:23.600Z,78.46
2018-05-14T04:02:30.528Z,78.46
2018-05-14T04:03:40.256Z,78.48
2018-05-14T04:04:50.489Z,78.51
2018-05-14T04:05:58.768Z,78.50
2018-05-14T04:07:04.388Z,78.49
2018-05-14T04:08:11.323Z,78.44
2018-05-14T04:10:25.316Z,78.46
2018-05-14T04:11:33.635Z,78.50
2018-05-14T04:12:39.306Z,78.55
2018-05-14T04:13:49.760Z,78.56
2018-05-14T04:14:56.520Z,78.54
2018-05-14T04:16:00.052Z,78.56
2018-05-14T04:17:06.864Z,78.61
2018-05-14T04:18:13.968Z,78.61
2018-05-14T04:19:20.819Z,78.60
2018-05-14T04:20:28.625Z,78.61
2018-05-14T04:21:35.216Z,78.65
2018-05-14T04:22:42.126Z,78.63
2018-05-14T04:23:51.956Z,78.66
2018-05-14T04:24:56.023Z,78.64
2018-05-14T04:26:03.007Z,78.66
2018-05-14T04:27:15.013Z,78.68
2018-05-14T04:28:16.978Z,78.72
2018-05-14T04:29:23.751Z,78.73
2018-05-14T04:30:30.588Z,78.73
2018-05-14T04:31:37.482Z,78.75
2018-05-14T04:32:44.399Z,78.76
2018-05-14T04:33:51.219Z,78.78
2018-05-14T04:36:08.836Z,78.83
2018-05-14T04:37:18.690Z,78.81
2018-05-14T04:38:18.908Z,78.84
2018-05-14T04:39:26.103Z,78.86
2018-05-14T04:40:32.820Z,78.89
2018-05-14T04:41:39.956Z,78.89
2018-05-14T04:42:47.005Z,78.92
2018-05-14T04:43:54.072Z,78.92
2018-05-14T04:45:00.830Z,78.95
2018-05-14T04:46:07.675Z,78.99
2018-05-14T04:47:14.516Z,78.99
2018-05-14T04:48:24.972Z,79.01
2018-05-14T04:49:29.836Z,79.05
2018-05-14T04:50:35.364Z,79.10
2018-05-14T04:51:42.434Z,79.12
2018-05-14T04:53:58.907Z,79.09
2018-05-14T04:56:09.911Z,79.13
2018-05-14T04:57:19.937Z,79.15
2018-05-14T04:58:23.844Z,79.19
2018-05-14T04:59:30.737Z,79.20
2018-05-14T05:00:37.796Z,79.21
2018-05-14T05:01:44.788Z,79.24
2018-05-14T05:02:56.669Z,79.27
2018-05-14T05:03:58.715Z,79.26
2018-05-14T05:05:05.749Z,79.31
2018-05-14T05:06:12.793Z,79.40
2018-05-14T05:07:19.679Z,79.40
2018-05-14T05:08:26.684Z,79.42
2018-05-14T05:09:33.231Z,79.43
2018-05-14T05:10:40.896Z,79.45
2018-05-14T05:11:46.932Z,79.48
2018-05-14T05:12:54.024Z,79.50
2018-05-14T05:14:00.813Z,79.51
2018-05-14T05:15:08.504Z,79.56
2018-05-14T05:16:14.468Z,79.61
2018-05-14T05:17:22.406Z,79.66
2018-05-14T05:18:29.796Z,79.65
2018-05-14T05:19:35.421Z,79.67
2018-05-14T05:20:42.423Z,79.73
2018-05-14T05:21:49.391Z,79.75
2018-05-14T05:22:56.289Z,79.78
2018-05-14T05:24:03.160Z,79.79
2018-05-14T05:25:10.568Z,79.79
2018-05-14T05:26:16.696Z,79.79
2018-05-14T05:27:23.717Z,79.87
2018-05-14T05:28:31.828Z,79.90
2018-05-14T05:30:44.884Z,79.97
2018-05-14T05:31:54.846Z,80.03
2018-05-14T05:32:58.734Z,80.09
2018-05-14T05:34:06.448Z,80.15
2018-05-14T05:35:12.416Z,80.19
2018-05-14T05:36:19.229Z,80.19
2018-05-14T05:37:26.007Z,80.19
2018-05-14T05:38:32.619Z,80.22
2018-05-14T05:39:39.371Z,80.28
2018-05-14T05:40:46.389Z,80.29
2018-05-14T05:41:53.352Z,80.33
2018-05-14T05:43:00.239Z,80.36
2018-05-14T05:44:07.243Z,80.35
2018-05-14T05:45:13.879Z,80.35
2018-05-14T05:46:20.796Z,80.37
2018-05-14T05:47:28.096Z,80.40
2018-05-14T05:48:35.177Z,80.44
2018-05-14T05:49:42.083Z,80.48
2018-05-14T05:50:48.744Z,80.50
2018-05-14T05:51:57.153Z,80.51
2018-05-14T05:53:02.955Z,80.56
2018-05-14T05:54:09.767Z,80.60
2018-05-14T05:55:20.699Z,80.63
2018-05-14T05:56:23.348Z,80.66
2018-05-14T05:57:30.135Z,80.66
2018-05-14T05:58:36.976Z,80.69
2018-05-14T05:59:43.832Z,80.72
2018-05-14T06:00:50.755Z,80.77
2018-05-14T06:02:00.275Z,80.79
2018-05-14T06:03:04.746Z,80.80
2018-05-14T06:04:11.657Z,80.82
2018-05-14T06:05:18.447Z,80.83
2018-05-14T06:06:25.573Z,80.87
2018-05-14T06:07:32.480Z,80.90
2018-05-14T06:08:39.251Z,80.94
2018-05-14T06:09:45.937Z,80.97
2018-05-14T06:10:52.873Z,81.01
2018-05-14T06:12:00.687Z,81.03
2018-05-14T06:13:06.315Z,81.06
2018-05-14T06:14:13.104Z,81.13
2018-05-14T06:15:20.066Z,81.11
2018-05-14T06:16:29.025Z,81.16
2018-05-14T06:17:33.512Z,81.21
2018-05-14T06:18:40.492Z,81.22
2018-05-14T06:19:47.444Z,81.20
2018-05-14T06:20:54.290Z,81.24
2018-05-14T06:22:01.105Z,81.25
2018-05-14T06:23:07.911Z,81.23
2018-05-14T06:24:14.843Z,81.24
2018-05-14T06:25:21.396Z,81.28
2018-05-14T06:26:28.201Z,81.28
2018-05-14T06:27:35.203Z,81.27
2018-05-14T06:28:41.908Z,81.27
2018-05-14T06:29:48.779Z,81.30
2018-05-14T06:30:55.757Z,81.33
2018-05-14T06:32:02.851Z,81.35
2018-05-14T06:33:09.848Z,81.41
2018-05-14T06:34:16.924Z,81.43
2018-05-14T06:35:23.663Z,81.44
2018-05-14T06:36:30.438Z,81.46
2018-05-14T06:37:37.245Z,81.46
2018-05-14T06:38:44.016Z,81.48
2018-05-14T06:39:50.808Z,81.48
2018-05-14T06:40:57.634Z,81.56
2018-05-14T06:42:04.465Z,81.57
2018-05-14T06:43:11.288Z,81.54
2018-05-14T06:44:18.132Z,81.59
2018-05-14T06:45:24.906Z,81.59
2018-05-14T06:46:31.697Z,81.62
2018-05-14T06:47:38.481Z,81.69
2018-05-14T06:48:45.298Z,81.71
2018-05-14T06:49:52.171Z,81.73
2018-05-14T06:50:58.888Z,81.76
2018-05-14T06:52:05.728Z,81.77
2018-05-14T06:53:12.516Z,81.80
2018-05-14T06:54:19.347Z,81.81
2018-05-14T06:55:26.142Z,81.88
2018-05-14T06:56:33.001Z,81.92
2018-05-14T06:57:39.888Z,81.96
2018-05-14T06:58:46.663Z,82.02
2018-05-14T06:59:53.446Z,82.07
2018-05-14T07:01:00.265Z,82.10
2018-05-14T07:02:07.080Z,82.12
2018-05-14T07:03:13.952Z,82.12
2018-05-14T07:04:20.713Z,82.17
2018-05-14T07:05:27.537Z,82.20
2018-05-14T07:06:34.466Z,82.22
2018-05-14T07:07:41.312Z,82.29
2018-05-14T07:08:48.137Z,82.35
2018-05-14T07:09:54.956Z,82.39
2018-05-14T07:11:01.812Z,82.51
2018-05-14T07:12:08.694Z,82.50
2018-05-14T07:13:15.464Z,82.56
2018-05-14T07:14:22.267Z,82.63
2018-05-14T07:15:29.076Z,82.65
2018-05-14T07:16:35.881Z,82.74
2018-05-14T07:17:42.693Z,82.80
2018-05-14T07:18:49.555Z,82.82
2018-05-14T07:19:56.447Z,82.86
2018-05-14T07:21:03.347Z,82.91
2018-05-14T07:22:10.188Z,82.97
2018-05-14T07:23:17.086Z,83.06
2018-05-14T07:24:24.040Z,83.12
2018-05-14T07:25:30.805Z,83.18
2018-05-14T07:26:37.664Z,83.23
2018-05-14T07:27:44.471Z,83.31
2018-05-14T07:28:52.103Z,83.38
2018-05-14T07:29:58.240Z,83.44
2018-05-14T07:31:05.055Z,83.47
2018-05-14T07:32:11.966Z,83.52
2018-05-14T07:33:18.601Z,83.54
2018-05-14T07:34:25.492Z,83.60
2018-05-14T07:35:32.484Z,83.58
2018-05-14T07:36:39.273Z,83.66
2018-05-14T07:37:46.113Z,83.69
2018-05-14T07:38:53.024Z,83.74
2018-05-14T07:40:00.181Z,83.77
2018-05-14T07:41:06.955Z,83.82
2018-05-14T07:42:13.880Z,83.84
2018-05-14T07:43:20.683Z,83.84
2018-05-14T07:44:27.486Z,83.90
2018-05-14T07:45:34.294Z,83.96
2018-05-14T07:46:41.280Z,84.02
2018-05-14T07:47:48.150Z,84.02
2018-05-14T07:48:55.427Z,84.00
2018-05-14T07:50:02.336Z,83.99
2018-05-14T07:51:09.268Z,84.07
2018-05-14T07:52:16.250Z,84.18
2018-05-14T07:53:23.028Z,84.16
2018-05-14T07:54:29.964Z,84.16
2018-05-14T07:55:36.817Z,84.18
2018-05-14T07:56:44.060Z,84.16
2018-05-14T07:57:50.929Z,84.26
2018-05-14T07:58:57.711Z,84.25
2018-05-14T08:00:04.547Z,84.33
2018-05-14T08:01:11.665Z,84.37
2018-05-14T08:02:18.498Z,84.41
2018-05-14T08:03:25.419Z,84.42
2018-05-14T08:04:32.216Z,84.48
2018-05-14T08:05:39.104Z,84.51
2018-05-14T08:06:46.031Z,84.51
2018-05-14T08:07:53.031Z,84.56
2018-05-14T08:08:59.884Z,84.60
2018-05-14T08:10:06.765Z,84.57
2018-05-14T08:11:13.612Z,84.60
2018-05-14T08:12:22.074Z,84.59
2018-05-14T08:13:27.573Z,84.71
2018-05-14T08:14:34.400Z,84.75
2018-05-14T08:15:41.205Z,84.70
2018-05-14T08:16:48.136Z,84.70
2018-05-14T08:17:54.997Z,84.73
2018-05-14T08:19:01.797Z,84.72
2018-05-14T08:20:08.701Z,84.74
2018-05-14T08:21:16.584Z,84.75
2018-05-14T08:22:22.560Z,84.76
2018-05-14T08:23:29.675Z,84.75
2018-05-14T08:24:36.465Z,84.80
2018-05-14T08:25:43.360Z,84.82
2018-05-14T08:26:50.224Z,84.87
2018-05-14T08:27:57.079Z,84.91
2018-05-14T08:29:03.878Z,84.90
2018-05-14T08:30:11.847Z,84.93
2018-05-14T08:31:17.796Z,84.95
2018-05-14T08:32:24.770Z,84.98
2018-05-14T08:33:31.391Z,85.00
2018-05-14T08:34:38.238Z,85.00
2018-05-14T08:35:50.165Z,84.96
2018-05-14T08:36:52.028Z,84.93
2018-05-14T08:37:58.881Z,84.90
2018-05-14T08:39:05.665Z,84.93
2018-05-14T08:40:12.471Z,85.02
2018-05-14T08:41:19.268Z,85.03
2018-05-14T08:42:26.119Z,85.10
2018-05-14T08:43:32.916Z,85.03
2018-05-14T08:44:40.837Z,85.03
2018-05-14T08:45:46.834Z,85.03
2018-05-14T08:46:53.559Z,84.98
2018-05-14T08:48:00.514Z,84.94
2018-05-14T08:49:07.427Z,84.98
2018-05-14T08:50:14.250Z,85.03
2018-05-14T08:51:21.128Z,85.00
2018-05-14T08:52:28.240Z,85.01
2018-05-14T08:53:35.152Z,85.05
2018-05-14T08:54:41.944Z,85.09
2018-05-14T08:55:48.840Z,85.11
2018-05-14T08:56:55.777Z,85.11
2018-05-14T08:58:03.028Z,85.17
2018-05-14T08:59:09.888Z,85.25
2018-05-14T09:00:16.835Z,85.24
2018-05-14T09:01:23.655Z,85.24
2018-05-14T09:02:30.548Z,85.19
2018-05-14T09:03:37.464Z,85.17
2018-05-14T09:04:44.254Z,85.06
2018-05-14T09:05:51.159Z,85.07
2018-05-14T09:06:57.926Z,85.06
2018-05-14T09:08:04.749Z,85.05
2018-05-14T09:09:12.395Z,84.99
2018-05-14T09:10:18.818Z,84.97
2018-05-14T09:11:29.101Z,85.00
2018-05-14T09:12:32.530Z,84.93
2018-05-14T09:13:39.654Z,84.93
2018-05-14T09:14:46.647Z,84.93
2018-05-14T09:15:53.535Z,84.85
2018-05-14T09:17:00.349Z,84.76
2018-05-14T09:18:07.966Z,84.76
2018-05-14T09:19:14.345Z,84.73
2018-05-14T09:20:21.190Z,84.68
2018-05-14T09:21:28.121Z,84.71
2018-05-14T09:22:35.066Z,84.83
2018-05-14T09:23:41.864Z,84.90
2018-05-14T09:24:48.675Z,84.80
2018-05-14T09:25:55.951Z,84.68
2018-05-14T09:28:09.865Z,84.69
2018-05-14T09:29:16.863Z,84.72
2018-05-14T09:30:23.716Z,84.75
2018-05-14T09:31:30.570Z,84.64
2018-05-14T09:32:37.500Z,84.64
2018-05-14T09:33:44.428Z,84.65
2018-05-14T09:34:51.133Z,84.63
2018-05-14T09:35:57.963Z,84.71
2018-05-14T09:37:04.813Z,84.73
2018-05-14T09:38:11.850Z,84.55
2018-05-14T09:39:18.895Z,84.51
2018-05-14T09:40:25.162Z,84.56
2018-05-14T09:41:32.094Z,84.63
2018-05-14T09:42:38.920Z,84.55
2018-05-14T09:43:45.851Z,84.56
2018-05-14T09:44:52.685Z,84.55
2018-05-14T09:45:59.812Z,84.56
2018-05-14T09:47:06.651Z,84.46
2018-05-14T09:48:16.932Z,84.37
2018-05-14T09:49:20.372Z,84.47
2018-05-14T09:50:27.247Z,84.42
2018-05-14T09:51:34.152Z,84.45
2018-05-14T09:52:41.359Z,84.46
2018-05-14T09:53:47.872Z,84.55
2018-05-14T09:54:54.761Z,84.58
2018-05-14T09:56:01.664Z,84.35
2018-05-14T09:57:08.585Z,84.23
2018-05-14T09:58:18.985Z,84.14
2018-05-14T09:59:22.578Z,84.22
2018-05-14T10:00:29.998Z,84.25
2018-05-14T10:01:36.433Z,84.16
2018-05-14T10:02:43.293Z,84.21
2018-05-14T10:03:50.198Z,84.18
2018-05-14T10:04:57.033Z,84.20
2018-05-14T10:06:03.812Z,84.34
2018-05-14T10:07:17.001Z,84.18
2018-05-14T10:08:17.695Z,84.13
2018-05-14T10:09:24.648Z,84.18
2018-05-14T10:10:32.252Z,84.24
2018-05-14T10:11:38.355Z,84.27
2018-05-14T10:12:45.981Z,84.29
2018-05-14T10:13:53.234Z,84.25
2018-05-14T10:14:59.480Z,84.28
2018-05-14T10:16:06.240Z,84.30
2018-05-14T10:17:13.651Z,84.22
2018-05-14T10:18:21.484Z,83.93
2018-05-14T10:19:27.437Z,83.83
2018-05-14T10:20:38.332Z,83.71
2018-05-14T10:21:41.059Z,83.75
2018-05-14T10:22:47.572Z,83.67
2018-05-14T10:23:54.468Z,83.63
2018-05-14T10:25:01.639Z,83.46
2018-05-14T10:26:08.013Z,83.37
2018-05-14T10:27:15.890Z,83.21
2018-05-14T10:28:21.911Z,83.21
2018-05-14T10:30:36.389Z,83.20
2018-05-14T10:31:44.530Z,83.20
2018-05-14T10:32:49.108Z,83.18
2018-05-14T10:33:56.680Z,83.09
2018-05-14T10:36:13.061Z,83.05
2018-05-14T10:37:17.928Z,83.07
2018-05-14T10:38:24.497Z,82.92
2018-05-14T10:39:30.718Z,82.80
2018-05-14T10:40:37.343Z,82.67
2018-05-14T10:41:44.456Z,82.63
2018-05-14T10:42:51.229Z,82.63
2018-05-14T10:43:59.329Z,82.47
2018-05-14T10:45:04.839Z,82.43
2018-05-14T10:46:14.338Z,82.39
2018-05-14T10:47:18.706Z,82.29
2018-05-14T10:48:27.154Z,82.17
2018-05-14T10:49:35.767Z,82.27
2018-05-14T10:50:45.126Z,82.22
2018-05-14T10:51:50.914Z,82.17
2018-05-14T10:52:57.421Z,82.17
2018-05-14T10:54:01.172Z,82.32
2018-05-14T10:55:11.331Z,82.11
2018-05-14T10:56:14.570Z,81.94
2018-05-14T10:57:22.743Z,82.03
2018-05-14T10:59:35.032Z,81.79
2018-05-14T11:00:47.666Z,81.78
2018-05-14T11:01:49.443Z,81.81
2018-05-14T11:02:56.391Z,81.91
2018-05-14T11:04:03.068Z,81.75
2018-05-14T11:05:09.840Z,81.75
2018-05-14T11:06:17.265Z,81.63
2018-05-14T11:07:24.082Z,81.54
2018-05-14T11:08:30.431Z,81.26
2018-05-14T11:09:37.359Z,81.07
2018-05-14T11:10:44.175Z,81.03
2018-05-14T11:11:51.029Z,80.83
2018-05-14T11:12:58.777Z,80.71
2018-05-14T11:14:04.711Z,80.53
2018-05-14T11:15:11.753Z,80.49
2018-05-14T11:16:18.215Z,80.37
2018-05-14T11:17:25.168Z,80.37
2018-05-14T11:18:33.940Z,80.28
2018-05-14T11:19:38.882Z,80.32
2018-05-14T11:20:46.028Z,80.30
2018-05-14T11:21:52.910Z,80.32
2018-05-14T11:22:59.796Z,80.27
2018-05-14T11:24:06.826Z,80.34
2018-05-14T11:25:13.719Z,80.28
2018-05-14T11:26:20.687Z,80.20
2018-05-14T11:27:27.700Z,80.16
2018-05-14T11:28:34.643Z,80.12
2018-05-14T11:29:41.481Z,80.11
2018-05-14T11:30:48.328Z,80.05
2018-05-14T11:31:55.232Z,79.94
2018-05-14T11:33:02.075Z,80.08
2018-05-14T11:34:09.012Z,80.15
2018-05-14T11:35:16.834Z,80.18
2018-05-14T11:36:23.313Z,80.13
2018-05-14T11:37:29.607Z,80.20
2018-05-14T11:38:40.163Z,80.22
2018-05-14T11:40:50.703Z,80.22
2018-05-14T11:41:57.728Z,80.16
2018-05-14T11:43:05.970Z,79.90
2018-05-14T11:44:18.499Z,79.85
2018-05-14T11:45:18.447Z,79.73
2018-05-14T11:46:25.511Z,79.58
2018-05-14T11:47:32.337Z,79.63
2018-05-14T11:48:39.404Z,79.70
2018-05-14T11:49:46.700Z,79.77
2018-05-14T11:50:53.636Z,79.72
2018-05-14T11:52:00.578Z,79.87
2018-05-14T11:53:07.336Z,79.86
2018-05-14T11:54:14.248Z,79.75
2018-05-14T11:55:21.053Z,79.66
2018-05-14T11:56:27.881Z,79.67
2018-05-14T11:57:34.748Z,79.69
2018-05-14T11:58:41.675Z,79.75
2018-05-14T11:59:48.631Z,79.75
2018-05-14T12:00:57.656Z,79.82
2018-05-14T12:02:02.470Z,79.99
2018-05-14T12:03:09.755Z,79.88
2018-05-14T12:04:17.616Z,79.88
2018-05-14T12:05:23.411Z,80.16
2018-05-14T12:06:31.725Z,80.23
2018-05-14T12:07:37.181Z,80.33
2018-05-14T12:08:44.116Z,80.47
2018-05-14T12:09:51.052Z,80.39
2018-05-14T12:10:57.925Z,80.28
2018-05-14T12:12:04.825Z,80.26
2018-05-14T12:13:11.666Z,80.37
2018-05-14T12:14:18.543Z,80.20
2018-05-14T12:15:25.373Z,80.02
2018-05-14T12:16:32.230Z,79.90
2018-05-14T12:17:39.128Z,79.86
2018-05-14T12:18:46.126Z,79.81
2018-05-14T12:19:52.743Z,79.84
2018-05-14T12:20:59.447Z,79.85
2018-05-14T12:22:06.418Z,79.85
2018-05-14T12:23:13.272Z,79.84
2018-05-14T12:24:20.367Z,79.79
2018-05-14T12:25:27.214Z,79.75
2018-05-14T12:26:34.038Z,79.68
2018-05-14T12:27:40.899Z,79.72
2018-05-14T12:28:47.759Z,79.84
2018-05-14T12:29:54.547Z,79.80
2018-05-14T12:31:01.386Z,79.67
2018-05-14T12:32:08.286Z,79.81
2018-05-14T12:33:15.004Z,79.74
2018-05-14T12:34:21.850Z,79.80
2018-05-14T12:35:28.689Z,79.82
2018-05-14T12:36:35.520Z,79.75
2018-05-14T12:37:42.331Z,79.94
2018-05-14T12:38:49.161Z,79.84
2018-05-14T12:39:56.091Z,79.95
2018-05-14T12:41:02.911Z,79.91
2018-05-14T12:42:09.879Z,79.81
2018-05-14T12:43:17.000Z,79.80
2018-05-14T12:44:23.377Z,79.86
2018-05-14T12:45:31.637Z,79.80
2018-05-14T12:46:37.100Z,79.85
2018-05-14T12:47:44.116Z,79.68
2018-05-14T12:48:50.993Z,79.60
2018-05-14T12:49:57.879Z,79.68
2018-05-14T12:51:08.410Z,79.89
2018-05-14T12:52:12.809Z,79.82
2018-05-14T12:53:18.603Z,79.80
2018-05-14T12:54:25.462Z,79.62
2018-05-14T12:55:32.343Z,79.71
2018-05-14T12:56:39.277Z,79.62
2018-05-14T12:57:46.316Z,79.64
2018-05-14T12:58:53.088Z,79.58
2018-05-14T12:59:59.908Z,79.59
2018-05-14T13:01:06.826Z,79.77
2018-05-14T13:02:13.660Z,79.77
2018-05-14T13:03:20.742Z,79.93
2018-05-14T13:04:27.562Z,79.98
2018-05-14T13:05:34.412Z,80.05
2018-05-14T13:06:41.344Z,79.76
2018-05-14T13:07:48.140Z,79.71
2018-05-14T13:08:54.954Z,79.45
2018-05-14T13:10:01.789Z,79.31
2018-05-14T13:11:08.675Z,79.32
2018-05-14T13:12:15.962Z,79.35
2018-05-14T13:13:22.263Z,79.33
2018-05-14T13:14:29.214Z,79.25
2018-05-14T13:15:36.022Z,79.17
2018-05-14T13:16:42.816Z,79.11
2018-05-14T13:17:49.444Z,79.08
2018-05-14T13:18:56.219Z,79.23
2018-05-14T13:20:03.012Z,78.99
2018-05-14T13:21:09.837Z,78.93
2018-05-14T13:22:16.677Z,78.85
2018-05-14T13:23:23.712Z,78.92
2018-05-14T13:24:30.610Z,78.82
2018-05-14T13:25:38.535Z,78.68
2018-05-14T13:26:44.524Z,78.76
2018-05-14T13:27:51.554Z,78.55
2018-05-14T13:28:58.584Z,78.40
2018-05-14T13:30:05.566Z,78.30
2018-05-14T13:31:12.536Z,77.99
2018-05-14T13:32:19.556Z,78.17
2018-05-14T13:33:26.514Z,78.27
2018-05-14T13:34:33.510Z,78.14
2018-05-14T13:35:40.467Z,77.93
2018-05-14T13:36:47.343Z,77.91
2018-05-14T13:37:54.399Z,77.60
2018-05-14T13:39:00.779Z,77.43
2018-05-14T13:40:07.544Z,77.33
2018-05-14T13:41:14.392Z,77.28
2018-05-14T13:42:21.199Z,77.27
2018-05-14T13:43:28.029Z,77.34
2018-05-14T13:44:35.099Z,77.19
2018-05-14T13:45:42.283Z,77.18
2018-05-14T13:46:49.149Z,77.16
2018-05-14T13:47:55.896Z,77.37
2018-05-14T13:49:02.925Z,77.47
2018-05-14T13:50:09.635Z,77.19
2018-05-14T13:51:18.154Z,77.18
2018-05-14T13:52:23.456Z,77.09
2018-05-14T13:53:30.277Z,76.94
2018-05-14T13:54:37.134Z,76.86
2018-05-14T13:55:44.051Z,76.75
2018-05-14T13:56:50.974Z,76.65
2018-05-14T13:57:57.977Z,76.53
2018-05-14T13:59:05.411Z,76.56
2018-05-14T14:00:12.197Z,76.27
2018-05-14T14:01:19.241Z,75.89
2018-05-14T14:02:26.222Z,75.63
2018-05-14T14:03:33.041Z,75.42
2018-05-14T14:04:40.184Z,75.33
2018-05-14T14:05:49.061Z,75.17
2018-05-14T14:06:53.887Z,75.14
2018-05-14T14:08:00.907Z,75.01
2018-05-14T14:09:07.750Z,74.88
2018-05-14T14:10:14.815Z,74.75
2018-05-14T14:11:21.796Z,74.87
2018-05-14T14:12:28.360Z,75.02
2018-05-14T14:13:35.216Z,75.20
2018-05-14T14:14:42.505Z,75.08
2018-05-14T14:15:49.069Z,75.00
2018-05-14T14:16:55.870Z,74.78
2018-05-14T14:18:02.806Z,74.74
2018-05-14T14:19:09.925Z,74.75
2018-05-14T14:20:17.064Z,74.79
2018-05-14T14:21:23.888Z,74.69
2018-05-14T14:22:31.150Z,74.62
2018-05-14T14:23:38.358Z,74.80
2018-05-14T14:24:45.425Z,74.79
2018-05-14T14:25:52.740Z,74.97
2018-05-14T14:26:59.599Z,74.96
2018-05-14T14:28:06.633Z,74.81
2018-05-14T14:29:13.472Z,74.79
2018-05-14T14:30:20.408Z,74.83
2018-05-14T14:31:27.416Z,74.82
2018-05-14T14:32:35.196Z,75.02
2018-05-14T14:33:41.222Z,75.15
2018-05-14T14:34:49.140Z,75.01
2018-05-14T14:35:55.076Z,75.10
2018-05-14T14:37:01.987Z,75.13